sensor_id;sensor_type;location;lat;lon;timestamp;pressure;altitude;pressure_sealevel;temperature;humidity
41636;BME280;27623;51.966;4.602;2023-05-07T00:01:11;64920.22;;;16.19;100.00
41636;BME280;27623;51.966;4.602;2023-05-07T00:03:36;64941.13;;;16.24;100.00
41636;BME280;27623;51.966;4.602;2023-05-07T00:06:03;64946.81;;;16.24;100.00
41636;BME280;27623;51.966;4.602;2023-05-07T00:08:28;64909.06;;;16.13;100.00
41636;BME280;27623;51.966;4.602;2023-05-07T00:10:54;64885.25;;;16.03;100.00
41636;BME280;27623;51.966;4.602;2023-05-07T00:13:21;64967.22;;;16.22;100.00
41636;BME280;27623;51.966;4.602;2023-05-07T00:15:47;64918.75;;;16.20;100.00
41636;BME280;27623;51.966;4.602;2023-05-07T00:18:12;64975.09;;;16.24;100.00
41636;BME280;27623;51.966;4.602;2023-05-07T00:20:37;64961.88;;;16.26;100.00
41636;BME280;27623;51.966;4.602;2023-05-07T00:23:03;64964.16;;;16.14;100.00
41636;BME280;27623;51.966;4.602;2023-05-07T00:25:28;64894.72;;;16.14;100.00
41636;BME280;27623;51.966;4.602;2023-05-07T00:27:56;64901.38;;;16.06;100.00
41636;BME280;27623;51.966;4.602;2023-05-07T00:30:27;64945.44;;;16.11;100.00
41636;BME280;27623;51.966;4.602;2023-05-07T00:32:53;64941.94;;;16.12;100.00
41636;BME280;27623;51.966;4.602;2023-05-07T00:35:18;64938.66;;;16.09;100.00
41636;BME280;27623;51.966;4.602;2023-05-07T00:37:43;64930.75;;;16.07;100.00
41636;BME280;27623;51.966;4.602;2023-05-07T00:40:09;64926.34;;;16.10;100.00
41636;BME280;27623;51.966;4.602;2023-05-07T00:42:35;64942.13;;;16.08;100.00
41636;BME280;27623;51.966;4.602;2023-05-07T00:45:01;64911.28;;;16.08;100.00
41636;BME280;27623;51.966;4.602;2023-05-07T00:47:27;64932.47;;;16.25;100.00
41636;BME280;27623;51.966;4.602;2023-05-07T00:49:53;64908.84;;;16.18;100.00
41636;BME280;27623;51.966;4.602;2023-05-07T00:52:20;64917.50;;;16.16;100.00
41636;BME280;27623;51.966;4.602;2023-05-07T00:54:47;64917.69;;;16.11;100.00
41636;BME280;27623;51.966;4.602;2023-05-07T00:57:13;64952.22;;;16.12;100.00
41636;BME280;27623;51.966;4.602;2023-05-07T00:59:40;64955.53;;;16.08;100.00
41636;BME280;27623;51.966;4.602;2023-05-07T01:02:06;64959.41;;;16.05;100.00
41636;BME280;27623;51.966;4.602;2023-05-07T01:04:34;64921.06;;;16.00;100.00
41636;BME280;27623;51.966;4.602;2023-05-07T01:07:00;64915.91;;;16.00;100.00
41636;BME280;27623;51.966;4.602;2023-05-07T01:09:28;64935.81;;;15.90;100.00
41636;BME280;27623;51.966;4.602;2023-05-07T01:11:55;64922.56;;;15.99;100.00
41636;BME280;27623;51.966;4.602;2023-05-07T01:14:22;64902.94;;;15.91;100.00
41636;BME280;27623;51.966;4.602;2023-05-07T01:16:48;64892.75;;;15.76;100.00
41636;BME280;27623;51.966;4.602;2023-05-07T01:19:17;64915.91;;;15.76;100.00
41636;BME280;27623;51.966;4.602;2023-05-07T01:21:47;64929.63;;;15.82;100.00
41636;BME280;27623;51.966;4.602;2023-05-07T01:24:14;64918.19;;;15.88;100.00
41636;BME280;27623;51.966;4.602;2023-05-07T01:26:39;64908.66;;;15.91;100.00
41636;BME280;27623;51.966;4.602;2023-05-07T01:29:05;64950.69;;;15.90;100.00
41636;BME280;27623;51.966;4.602;2023-05-07T01:31:32;64873.25;;;15.85;100.00
41636;BME280;27623;51.966;4.602;2023-05-07T01:33:59;64898.66;;;15.72;100.00
41636;BME280;27623;51.966;4.602;2023-05-07T01:36:27;64908.72;;;15.77;100.00
41636;BME280;27623;51.966;4.602;2023-05-07T01:38:54;64895.16;;;15.74;100.00
41636;BME280;27623;51.966;4.602;2023-05-07T01:41:20;64875.09;;;15.81;100.00
41636;BME280;27623;51.966;4.602;2023-05-07T01:43:46;64895.91;;;15.70;100.00
41636;BME280;27623;51.966;4.602;2023-05-07T01:46:12;64890.94;;;15.72;100.00
41636;BME280;27623;51.966;4.602;2023-05-07T01:48:38;64861.97;;;15.69;100.00
41636;BME280;27623;51.966;4.602;2023-05-07T01:51:05;64909.06;;;15.82;100.00
41636;BME280;27623;51.966;4.602;2023-05-07T01:53:37;64867.47;;;15.67;100.00
41636;BME280;27623;51.966;4.602;2023-05-07T01:56:02;64899.22;;;15.73;100.00
41636;BME280;27623;51.966;4.602;2023-05-07T01:58:28;64893.72;;;15.68;100.00
41636;BME280;27623;51.966;4.602;2023-05-07T02:00:53;64915.13;;;15.80;100.00
41636;BME280;27623;51.966;4.602;2023-05-07T02:03:18;64905.38;;;15.81;100.00
41636;BME280;27623;51.966;4.602;2023-05-07T02:05:43;64891.28;;;15.77;100.00
41636;BME280;27623;51.966;4.602;2023-05-07T02:08:09;64879.00;;;15.78;100.00
41636;BME280;27623;51.966;4.602;2023-05-07T02:10:34;64863.22;;;15.73;100.00
41636;BME280;27623;51.966;4.602;2023-05-07T02:13:01;64877.91;;;15.77;100.00
41636;BME280;27623;51.966;4.602;2023-05-07T02:15:27;64936.75;;;15.89;100.00
41636;BME280;27623;51.966;4.602;2023-05-07T02:18:18;64902.06;;;15.85;100.00
41636;BME280;27623;51.966;4.602;2023-05-07T02:20:44;64872.22;;;15.76;100.00
41636;BME280;27623;51.966;4.602;2023-05-07T02:23:09;64900.97;;;15.84;100.00
41636;BME280;27623;51.966;4.602;2023-05-07T02:25:34;64897.13;;;15.80;100.00
41636;BME280;27623;51.966;4.602;2023-05-07T02:28:00;64894.97;;;15.78;100.00
41636;BME280;27623;51.966;4.602;2023-05-07T02:30:28;64848.28;;;15.57;100.00
41636;BME280;27623;51.966;4.602;2023-05-07T02:32:55;64877.41;;;15.62;100.00
41636;BME280;27623;51.966;4.602;2023-05-07T02:35:21;64864.56;;;15.62;100.00
41636;BME280;27623;51.966;4.602;2023-05-07T02:37:46;64885.84;;;15.65;100.00
41636;BME280;27623;51.966;4.602;2023-05-07T02:40:12;64851.19;;;15.62;100.00
41636;BME280;27623;51.966;4.602;2023-05-07T02:42:37;64881.41;;;15.75;100.00
41636;BME280;27623;51.966;4.602;2023-05-07T02:45:08;64887.09;;;15.76;100.00
41636;BME280;27623;51.966;4.602;2023-05-07T02:47:33;64887.50;;;15.67;100.00
41636;BME280;27623;51.966;4.602;2023-05-07T02:49:59;64854.59;;;15.74;100.00
41636;BME280;27623;51.966;4.602;2023-05-07T02:52:24;64915.91;;;15.76;100.00
41636;BME280;27623;51.966;4.602;2023-05-07T02:54:50;64879.56;;;15.71;100.00
41636;BME280;27623;51.966;4.602;2023-05-07T02:57:15;64885.25;;;15.72;100.00
41636;BME280;27623;51.966;4.602;2023-05-07T02:59:41;64860.31;;;15.68;100.00
41636;BME280;27623;51.966;4.602;2023-05-07T03:02:07;64856.06;;;15.73;100.00
41636;BME280;27623;51.966;4.602;2023-05-07T03:04:32;64886.75;;;15.71;100.00
41636;BME280;27623;51.966;4.602;2023-05-07T03:06:57;64909.09;;;15.75;100.00
41636;BME280;27623;51.966;4.602;2023-05-07T03:09:23;64877.19;;;15.74;100.00
41636;BME280;27623;51.966;4.602;2023-05-07T03:11:48;64921.06;;;15.69;100.00
41636;BME280;27623;51.966;4.602;2023-05-07T03:14:14;64871.31;;;15.71;100.00
41636;BME280;27623;51.966;4.602;2023-05-07T03:16:39;64914.28;;;15.68;100.00
41636;BME280;27623;51.966;4.602;2023-05-07T03:19:07;64887.50;;;15.67;100.00
41636;BME280;27623;51.966;4.602;2023-05-07T03:21:33;64880.50;;;15.70;100.00
41636;BME280;27623;51.966;4.602;2023-05-07T03:23:59;64884.91;;;15.67;100.00
41636;BME280;27623;51.966;4.602;2023-05-07T03:26:25;64899.78;;;15.66;100.00
41636;BME280;27623;51.966;4.602;2023-05-07T03:28:51;64879.03;;;15.71;100.00
41636;BME280;27623;51.966;4.602;2023-05-07T03:31:16;64909.50;;;15.73;100.00
41636;BME280;27623;51.966;4.602;2023-05-07T03:33:52;64893.88;;;15.77;100.00
41636;BME280;27623;51.966;4.602;2023-05-07T03:36:18;64928.75;;;15.76;100.00
41636;BME280;27623;51.966;4.602;2023-05-07T03:38:46;64876.81;;;15.76;100.00
41636;BME280;27623;51.966;4.602;2023-05-07T03:41:12;64914.41;;;15.77;100.00
41636;BME280;27623;51.966;4.602;2023-05-07T03:43:37;64926.72;;;15.77;100.00
41636;BME280;27623;51.966;4.602;2023-05-07T03:46:05;64907.63;;;15.76;100.00
41636;BME280;27623;51.966;4.602;2023-05-07T03:48:30;64908.19;;;15.76;100.00
41636;BME280;27623;51.966;4.602;2023-05-07T03:50:57;64899.75;;;15.73;100.00
41636;BME280;27623;51.966;4.602;2023-05-07T03:53:22;64899.94;;;15.76;100.00
41636;BME280;27623;51.966;4.602;2023-05-07T03:55:48;64907.88;;;15.64;100.00
41636;BME280;27623;51.966;4.602;2023-05-07T03:58:13;64897.00;;;15.71;100.00
41636;BME280;27623;51.966;4.602;2023-05-07T04:00:38;64910.44;;;15.64;100.00
41636;BME280;27623;51.966;4.602;2023-05-07T04:03:05;64888.41;;;15.65;100.00
41636;BME280;27623;51.966;4.602;2023-05-07T04:05:31;64897.59;;;15.64;100.00
41636;BME280;27623;51.966;4.602;2023-05-07T04:07:58;64892.09;;;15.66;100.00
41636;BME280;27623;51.966;4.602;2023-05-07T04:10:23;64907.28;;;15.71;100.00
41636;BME280;27623;51.966;4.602;2023-05-07T04:12:49;64911.88;;;15.70;100.00
41636;BME280;27623;51.966;4.602;2023-05-07T04:15:17;64864.00;;;15.69;100.00
41636;BME280;27623;51.966;4.602;2023-05-07T04:17:42;64881.97;;;15.69;100.00
41636;BME280;27623;51.966;4.602;2023-05-07T04:20:09;64889.47;;;15.73;100.00
41636;BME280;27623;51.966;4.602;2023-05-07T04:22:35;64873.50;;;15.73;100.00
41636;BME280;27623;51.966;4.602;2023-05-07T04:25:01;64912.59;;;15.73;100.00
41636;BME280;27623;51.966;4.602;2023-05-07T04:27:27;64894.66;;;15.66;100.00
41636;BME280;27623;51.966;4.602;2023-05-07T04:29:53;64905.09;;;15.69;100.00
41636;BME280;27623;51.966;4.602;2023-05-07T04:32:21;64876.13;;;15.66;100.00
41636;BME280;27623;51.966;4.602;2023-05-07T04:34:46;64886.94;;;15.66;100.00
41636;BME280;27623;51.966;4.602;2023-05-07T04:37:12;64885.69;;;15.63;100.00
41636;BME280;27623;51.966;4.602;2023-05-07T04:39:37;64894.09;;;15.66;100.00
41636;BME280;27623;51.966;4.602;2023-05-07T04:42:02;64878.69;;;15.66;100.00
41636;BME280;27623;51.966;4.602;2023-05-07T04:44:28;64866.38;;;15.66;100.00
41636;BME280;27623;51.966;4.602;2023-05-07T04:46:56;64872.88;;;15.56;100.00
41636;BME280;27623;51.966;4.602;2023-05-07T04:49:21;64882.41;;;15.53;100.00
41636;BME280;27623;51.966;4.602;2023-05-07T04:51:49;64858.72;;;15.59;100.00
41636;BME280;27623;51.966;4.602;2023-05-07T04:54:15;64898.75;;;15.58;100.00
41636;BME280;27623;51.966;4.602;2023-05-07T04:56:40;64899.44;;;15.61;100.00
41636;BME280;27623;51.966;4.602;2023-05-07T04:59:08;64929.16;;;15.67;100.00
41636;BME280;27623;51.966;4.602;2023-05-07T05:01:33;64903.59;;;15.77;100.00
41636;BME280;27623;51.966;4.602;2023-05-07T05:03:59;64925.06;;;15.75;100.00
41636;BME280;27623;51.966;4.602;2023-05-07T05:06:27;64924.31;;;15.79;100.00
41636;BME280;27623;51.966;4.602;2023-05-07T05:08:52;64905.94;;;15.81;100.00
41636;BME280;27623;51.966;4.602;2023-05-07T05:11:20;64879.91;;;15.76;100.00
41636;BME280;27623;51.966;4.602;2023-05-07T05:13:45;64877.28;;;15.84;100.00
41636;BME280;27623;51.966;4.602;2023-05-07T05:16:14;64914.41;;;15.77;100.00
41636;BME280;27623;51.966;4.602;2023-05-07T05:18:39;64888.56;;;15.75;100.00
41636;BME280;27623;51.966;4.602;2023-05-07T05:21:05;64861.59;;;15.71;100.00
41636;BME280;27623;51.966;4.602;2023-05-07T05:23:32;64900.53;;;15.62;100.00
41636;BME280;27623;51.966;4.602;2023-05-07T05:25:58;64926.03;;;15.67;100.00
41636;BME280;27623;51.966;4.602;2023-05-07T05:28:23;64887.13;;;15.69;100.00
41636;BME280;27623;51.966;4.602;2023-05-07T05:30:49;64860.16;;;15.65;100.00
41636;BME280;27623;51.966;4.602;2023-05-07T05:33:15;64894.16;;;15.59;100.00
41636;BME280;27623;51.966;4.602;2023-05-07T05:35:40;64901.16;;;15.56;100.00
41636;BME280;27623;51.966;4.602;2023-05-07T05:38:08;64900.91;;;15.60;100.00
41636;BME280;27623;51.966;4.602;2023-05-07T05:40:33;64885.72;;;15.56;100.00
41636;BME280;27623;51.966;4.602;2023-05-07T05:42:59;64874.53;;;15.50;100.00
41636;BME280;27623;51.966;4.602;2023-05-07T05:45:25;64862.28;;;15.43;100.00
41636;BME280;27623;51.966;4.602;2023-05-07T05:47:50;64832.09;;;15.30;100.00
41636;BME280;27623;51.966;4.602;2023-05-07T05:50:15;64885.19;;;15.48;100.00
41636;BME280;27623;51.966;4.602;2023-05-07T05:52:41;64894.34;;;15.54;100.00
41636;BME280;27623;51.966;4.602;2023-05-07T05:55:07;64876.91;;;15.55;100.00
41636;BME280;27623;51.966;4.602;2023-05-07T05:57:33;64889.94;;;15.57;100.00
41636;BME280;27623;51.966;4.602;2023-05-07T05:59:58;64912.50;;;15.57;100.00
41636;BME280;27623;51.966;4.602;2023-05-07T06:02:24;64879.44;;;15.62;100.00
41636;BME280;27623;51.966;4.602;2023-05-07T06:04:49;64916.88;;;15.61;100.00
41636;BME280;27623;51.966;4.602;2023-05-07T06:07:15;64890.66;;;15.60;100.00
41636;BME280;27623;51.966;4.602;2023-05-07T06:09:40;64885.91;;;15.51;100.00
41636;BME280;27623;51.966;4.602;2023-05-07T06:12:05;64880.75;;;15.58;100.00
41636;BME280;27623;51.966;4.602;2023-05-07T06:14:31;64893.97;;;15.56;100.00
41636;BME280;27623;51.966;4.602;2023-05-07T06:16:56;64883.72;;;15.49;100.00
41636;BME280;27623;51.966;4.602;2023-05-07T06:19:22;64838.72;;;15.29;100.00
41636;BME280;27623;51.966;4.602;2023-05-07T06:21:51;64852.44;;;15.34;100.00
41636;BME280;27623;51.966;4.602;2023-05-07T06:24:16;64858.69;;;15.28;100.00
41636;BME280;27623;51.966;4.602;2023-05-07T06:26:42;64855.97;;;15.26;100.00
41636;BME280;27623;51.966;4.602;2023-05-07T06:29:07;64828.44;;;15.29;100.00
41636;BME280;27623;51.966;4.602;2023-05-07T06:31:32;64892.06;;;15.35;100.00
41636;BME280;27623;51.966;4.602;2023-05-07T06:33:58;64824.94;;;15.30;100.00
41636;BME280;27623;51.966;4.602;2023-05-07T06:36:24;64866.19;;;15.33;100.00
41636;BME280;27623;51.966;4.602;2023-05-07T06:38:51;64844.72;;;15.34;100.00
41636;BME280;27623;51.966;4.602;2023-05-07T06:41:17;64853.56;;;15.28;100.00
41636;BME280;27623;51.966;4.602;2023-05-07T06:43:42;64867.63;;;15.39;100.00
41636;BME280;27623;51.966;4.602;2023-05-07T06:46:07;64871.13;;;15.37;100.00
41636;BME280;27623;51.966;4.602;2023-05-07T06:48:35;64866.38;;;15.35;100.00
41636;BME280;27623;51.966;4.602;2023-05-07T06:51:00;64842.28;;;15.44;100.00
41636;BME280;27623;51.966;4.602;2023-05-07T06:53:26;64893.78;;;15.54;100.00
41636;BME280;27623;51.966;4.602;2023-05-07T06:55:51;64891.97;;;15.57;100.00
41636;BME280;27623;51.966;4.602;2023-05-07T06:58:19;64908.03;;;15.67;100.00
41636;BME280;27623;51.966;4.602;2023-05-07T07:00:45;64915.97;;;15.62;100.00
41636;BME280;27623;51.966;4.602;2023-05-07T07:03:11;64893.78;;;15.54;100.00
41636;BME280;27623;51.966;4.602;2023-05-07T07:05:39;64862.94;;;15.61;100.00
41636;BME280;27623;51.966;4.602;2023-05-07T07:08:05;64905.47;;;15.67;100.00
41636;BME280;27623;51.966;4.602;2023-05-07T07:10:30;64906.75;;;15.70;100.00
41636;BME280;27623;51.966;4.602;2023-05-07T07:12:58;64885.84;;;15.65;100.00
41636;BME280;27623;51.966;4.602;2023-05-07T07:15:24;64909.91;;;15.64;100.00
41636;BME280;27623;51.966;4.602;2023-05-07T07:17:50;64910.97;;;15.72;100.00
41636;BME280;27623;51.966;4.602;2023-05-07T07:20:16;64923.44;;;15.74;100.00
41636;BME280;27623;51.966;4.602;2023-05-07T07:22:44;64912.56;;;15.80;100.00
41636;BME280;27623;51.966;4.602;2023-05-07T07:25:09;64955.28;;;15.89;100.00
41636;BME280;27623;51.966;4.602;2023-05-07T07:27:37;64956.91;;;15.98;100.00
41636;BME280;27623;51.966;4.602;2023-05-07T07:30:03;64980.69;;;16.08;100.00
41636;BME280;27623;51.966;4.602;2023-05-07T07:32:28;64983.91;;;16.25;100.00
41636;BME280;27623;51.966;4.602;2023-05-07T07:34:56;65015.47;;;16.35;100.00
41636;BME280;27623;51.966;4.602;2023-05-07T07:37:21;65010.13;;;16.40;100.00
41636;BME280;27623;51.966;4.602;2023-05-07T07:39:46;65013.91;;;16.50;100.00
41636;BME280;27623;51.966;4.602;2023-05-07T07:42:12;65015.16;;;16.54;100.00
41636;BME280;27623;51.966;4.602;2023-05-07T07:44:37;65028.75;;;16.57;100.00
41636;BME280;27623;51.966;4.602;2023-05-07T07:47:04;65029.13;;;16.55;100.00
41636;BME280;27623;51.966;4.602;2023-05-07T07:49:30;65017.81;;;16.40;100.00
41636;BME280;27623;51.966;4.602;2023-05-07T07:51:55;64991.88;;;16.44;100.00
41636;BME280;27623;51.966;4.602;2023-05-07T07:54:23;65031.31;;;16.57;100.00
41636;BME280;27623;51.966;4.602;2023-05-07T07:56:49;65023.41;;;16.62;100.00
41636;BME280;27623;51.966;4.602;2023-05-07T07:59:14;65041.34;;;16.76;100.00
41636;BME280;27623;51.966;4.602;2023-05-07T08:01:44;65057.28;;;16.83;100.00
41636;BME280;27623;51.966;4.602;2023-05-07T08:04:10;65114.19;;;17.03;100.00
41636;BME280;27623;51.966;4.602;2023-05-07T08:06:37;65079.44;;;16.99;100.00
41636;BME280;27623;51.966;4.602;2023-05-07T08:09:03;65083.28;;;17.03;100.00
41636;BME280;27623;51.966;4.602;2023-05-07T08:11:28;65081.75;;;17.11;100.00
41636;BME280;27623;51.966;4.602;2023-05-07T08:13:54;65101.56;;;17.22;100.00
41636;BME280;27623;51.966;4.602;2023-05-07T08:16:22;65101.94;;;17.20;100.00
41636;BME280;27623;51.966;4.602;2023-05-07T08:18:48;65112.19;;;17.27;100.00
41636;BME280;27623;51.966;4.602;2023-05-07T08:21:13;65135.50;;;17.37;100.00
41636;BME280;27623;51.966;4.602;2023-05-07T08:23:39;65124.63;;;17.43;100.00
41636;BME280;27623;51.966;4.602;2023-05-07T08:26:08;65163.41;;;17.46;100.00
41636;BME280;27623;51.966;4.602;2023-05-07T08:28:33;65131.97;;;17.45;100.00
41636;BME280;27623;51.966;4.602;2023-05-07T08:31:01;65117.25;;;17.41;100.00
41636;BME280;27623;51.966;4.602;2023-05-07T08:33:31;65147.97;;;17.46;100.00
41636;BME280;27623;51.966;4.602;2023-05-07T08:35:56;65135.16;;;17.32;100.00
41636;BME280;27623;51.966;4.602;2023-05-07T08:38:24;65117.91;;;17.28;100.00
41636;BME280;27623;51.966;4.602;2023-05-07T08:40:49;65131.28;;;17.35;100.00
41636;BME280;27623;51.966;4.602;2023-05-07T08:43:18;65124.94;;;17.48;100.00
41636;BME280;27623;51.966;4.602;2023-05-07T08:45:45;65155.09;;;17.52;100.00
41636;BME280;27623;51.966;4.602;2023-05-07T08:48:15;65157.84;;;17.55;100.00
41636;BME280;27623;51.966;4.602;2023-05-07T08:50:41;65177.72;;;17.59;100.00
41636;BME280;27623;51.966;4.602;2023-05-07T08:53:06;65204.84;;;17.79;100.00
41636;BME280;27623;51.966;4.602;2023-05-07T08:55:32;65195.00;;;17.94;100.00
41636;BME280;27623;51.966;4.602;2023-05-07T08:58:00;65152.38;;;17.81;100.00
41636;BME280;27623;51.966;4.602;2023-05-07T09:00:26;65193.78;;;17.83;100.00
41636;BME280;27623;51.966;4.602;2023-05-07T09:02:53;65194.44;;;17.94;100.00
41636;BME280;27623;51.966;4.602;2023-05-07T09:05:20;65200.16;;;17.94;100.00
41636;BME280;27623;51.966;4.602;2023-05-07T09:07:48;65223.88;;;18.02;100.00
41636;BME280;27623;51.966;4.602;2023-05-07T09:10:15;65205.28;;;18.01;100.00
41636;BME280;27623;51.966;4.602;2023-05-07T09:12:40;65185.19;;;18.02;100.00
41636;BME280;27623;51.966;4.602;2023-05-07T09:15:06;65222.34;;;18.10;100.00
41636;BME280;27623;51.966;4.602;2023-05-07T09:17:34;65220.47;;;18.13;100.00
41636;BME280;27623;51.966;4.602;2023-05-07T09:20:04;65192.09;;;18.13;100.00
41636;BME280;27623;51.966;4.602;2023-05-07T09:22:32;65209.44;;;18.10;100.00
41636;BME280;27623;51.966;4.602;2023-05-07T09:24:58;65207.09;;;18.05;100.00
41636;BME280;27623;51.966;4.602;2023-05-07T09:27:23;65213.19;;;18.04;100.00
41636;BME280;27623;51.966;4.602;2023-05-07T09:29:48;65252.59;;;18.07;100.00
41636;BME280;27623;51.966;4.602;2023-05-07T09:32:15;65218.28;;;18.11;100.00
41636;BME280;27623;51.966;4.602;2023-05-07T09:34:42;65238.69;;;18.15;100.00
41636;BME280;27623;51.966;4.602;2023-05-07T09:37:08;65258.94;;;18.25;100.00
41636;BME280;27623;51.966;4.602;2023-05-07T09:42:05;65245.31;;;18.22;100.00
41636;BME280;27623;51.966;4.602;2023-05-07T09:44:32;65259.69;;;18.20;100.00
41636;BME280;27623;51.966;4.602;2023-05-07T09:46:59;65233.06;;;18.32;100.00
41636;BME280;27623;51.966;4.602;2023-05-07T09:49:29;65289.44;;;18.34;100.00
41636;BME280;27623;51.966;4.602;2023-05-07T09:52:00;65270.41;;;18.42;100.00
41636;BME280;27623;51.966;4.602;2023-05-07T09:54:28;65272.16;;;18.61;100.00
41636;BME280;27623;51.966;4.602;2023-05-07T09:56:57;65312.50;;;18.69;100.00
41636;BME280;27623;51.966;4.602;2023-05-07T09:59:24;65300.19;;;18.86;100.00
41636;BME280;27623;51.966;4.602;2023-05-07T10:01:52;65343.66;;;18.96;100.00
41636;BME280;27623;51.966;4.602;2023-05-07T10:04:19;65344.97;;;19.16;100.00
41636;BME280;27623;51.966;4.602;2023-05-07T10:06:46;65375.84;;;19.37;100.00
41636;BME280;27623;51.966;4.602;2023-05-07T10:09:12;65406.59;;;19.49;100.00
41636;BME280;27623;51.966;4.602;2023-05-07T10:11:39;65433.03;;;19.73;100.00
41636;BME280;27623;51.966;4.602;2023-05-07T10:14:05;65415.69;;;19.69;100.00
41636;BME280;27623;51.966;4.602;2023-05-07T10:16:37;65427.81;;;19.80;100.00
41636;BME280;27623;51.966;4.602;2023-05-07T10:19:03;65458.19;;;19.94;100.00
41636;BME280;27623;51.966;4.602;2023-05-07T10:21:30;65486.72;;;20.11;100.00
41636;BME280;27623;51.966;4.602;2023-05-07T10:24:01;65484.91;;;20.31;100.00
41636;BME280;27623;51.966;4.602;2023-05-07T10:26:29;65496.63;;;20.20;98.76
41636;BME280;27623;51.966;4.602;2023-05-07T10:29:12;65501.88;;;20.13;98.87
41636;BME280;27623;51.966;4.602;2023-05-07T10:34:19;65480.69;;;20.22;91.10
41636;BME280;27623;51.966;4.602;2023-05-07T10:36:50;65508.91;;;20.34;91.47
41636;BME280;27623;51.966;4.602;2023-05-07T10:39:19;65551.44;;;20.58;93.34
41636;BME280;27623;51.966;4.602;2023-05-07T10:41:45;65572.06;;;20.73;92.35
41636;BME280;27623;51.966;4.602;2023-05-07T10:44:11;65589.53;;;20.63;90.07
41636;BME280;27623;51.966;4.602;2023-05-07T10:46:36;65557.56;;;20.81;91.97
41636;BME280;27623;51.966;4.602;2023-05-07T10:51:34;65587.44;;;20.94;86.48
41636;BME280;27623;51.966;4.602;2023-05-07T10:56:41;65572.84;;;20.69;85.64
41636;BME280;27623;51.966;4.602;2023-05-07T11:04:26;65556.75;;;20.68;91.34
41636;BME280;27623;51.966;4.602;2023-05-07T11:17:33;65542.75;;;20.60;89.37
41636;BME280;27623;51.966;4.602;2023-05-07T11:20:02;65586.63;;;20.81;91.86
41636;BME280;27623;51.966;4.602;2023-05-07T11:24:59;65546.22;;;20.66;86.93
41636;BME280;27623;51.966;4.602;2023-05-07T11:27:26;65484.06;;;20.42;88.94
41636;BME280;27623;51.966;4.602;2023-05-07T11:29:52;65520.38;;;20.35;88.73
41636;BME280;27623;51.966;4.602;2023-05-07T11:32:24;65486.03;;;20.24;88.54
41636;BME280;27623;51.966;4.602;2023-05-07T11:34:54;65514.41;;;20.15;89.54
41636;BME280;27623;51.966;4.602;2023-05-07T11:37:21;65482.84;;;20.07;88.87
41636;BME280;27623;51.966;4.602;2023-05-07T11:39:47;65506.41;;;20.19;90.89
41636;BME280;27623;51.966;4.602;2023-05-07T11:44:51;65501.69;;;20.10;91.21
41636;BME280;27623;51.966;4.602;2023-05-07T11:47:20;65478.56;;;20.13;91.13
41636;BME280;27623;51.966;4.602;2023-05-07T11:49:50;65475.03;;;20.14;91.14
41636;BME280;27623;51.966;4.602;2023-05-07T11:52:20;65503.13;;;20.16;90.49
41636;BME280;27623;51.966;4.602;2023-05-07T11:54:53;65488.31;;;20.19;91.94
41636;BME280;27623;51.966;4.602;2023-05-07T11:57:20;65484.41;;;20.23;91.37
41636;BME280;27623;51.966;4.602;2023-05-07T11:59:46;65508.19;;;20.31;93.27
41636;BME280;27623;51.966;4.602;2023-05-07T12:02:15;65521.66;;;20.38;88.63
41636;BME280;27623;51.966;4.602;2023-05-07T12:04:43;65478.00;;;20.36;87.00
41636;BME280;27623;51.966;4.602;2023-05-07T12:07:14;65526.09;;;20.35;86.50
41636;BME280;27623;51.966;4.602;2023-05-07T12:09:44;65553.94;;;20.49;87.34
41636;BME280;27623;51.966;4.602;2023-05-07T12:12:10;65541.38;;;20.47;86.78
41636;BME280;27623;51.966;4.602;2023-05-07T12:14:42;65525.63;;;20.51;87.55
41636;BME280;27623;51.966;4.602;2023-05-07T12:17:08;65544.69;;;20.50;87.51
41636;BME280;27623;51.966;4.602;2023-05-07T12:19:38;65534.94;;;20.43;84.94
41636;BME280;27623;51.966;4.602;2023-05-07T12:22:05;65563.25;;;20.65;83.81
41636;BME280;27623;51.966;4.602;2023-05-07T12:24:44;65574.16;;;20.89;83.89
41636;BME280;27623;51.966;4.602;2023-05-07T12:27:13;65556.75;;;20.92;86.08
41636;BME280;27623;51.966;4.602;2023-05-07T12:29:38;65592.00;;;21.01;87.40
41636;BME280;27623;51.966;4.602;2023-05-07T12:32:06;65565.22;;;20.95;87.92
41636;BME280;27623;51.966;4.602;2023-05-07T12:34:31;65590.09;;;20.87;89.20
41636;BME280;27623;51.966;4.602;2023-05-07T12:36:57;65557.34;;;20.85;90.06
41636;BME280;27623;51.966;4.602;2023-05-07T12:39:22;65578.47;;;20.83;91.30
41636;BME280;27623;51.966;4.602;2023-05-07T12:41:58;65565.97;;;20.74;89.09
41636;BME280;27623;51.966;4.602;2023-05-07T12:44:25;65563.91;;;20.75;89.57
41636;BME280;27623;51.966;4.602;2023-05-07T12:46:53;65549.88;;;20.74;89.63
41636;BME280;27623;51.966;4.602;2023-05-07T12:49:19;65531.50;;;20.78;90.09
41636;BME280;27623;51.966;4.602;2023-05-07T12:51:46;65582.06;;;20.75;88.40
41636;BME280;27623;51.966;4.602;2023-05-07T12:54:12;65564.84;;;20.73;87.68
41636;BME280;27623;51.966;4.602;2023-05-07T12:56:39;65611.66;;;20.76;88.52
41636;BME280;27623;51.966;4.602;2023-05-07T12:59:05;65524.34;;;20.72;87.48
41636;BME280;27623;51.966;4.602;2023-05-07T13:01:31;65561.00;;;20.70;82.40
41636;BME280;27623;51.966;4.602;2023-05-07T13:04:00;65570.84;;;20.62;81.82
41636;BME280;27623;51.966;4.602;2023-05-07T13:06:26;65537.69;;;20.46;82.67
41636;BME280;27623;51.966;4.602;2023-05-07T13:08:51;65520.88;;;20.42;79.79
41636;BME280;27623;51.966;4.602;2023-05-07T13:11:17;65545.88;;;20.61;80.66
41636;BME280;27623;51.966;4.602;2023-05-07T13:13:42;65533.88;;;20.59;80.89
41636;BME280;27623;51.966;4.602;2023-05-07T13:16:09;65537.13;;;20.45;81.03
41636;BME280;27623;51.966;4.602;2023-05-07T13:18:36;65503.31;;;20.43;84.08
41636;BME280;27623;51.966;4.602;2023-05-07T13:21:03;65499.72;;;20.28;87.96